createdAt,value
2023-02-23T00:01:46.147Z,15.05
2023-02-23T00:04:15.698Z,15.13
2023-02-23T00:06:45.407Z,15.52
2023-02-23T00:09:22.962Z,16.20
2023-02-23T00:11:56.489Z,15.77
2023-02-23T00:14:29.079Z,14.60
2023-02-23T00:16:59.990Z,15.27
2023-02-23T00:19:33.092Z,14.50
2023-02-23T00:24:32.694Z,16.73
2023-02-23T00:27:06.234Z,16.85
2023-02-23T00:29:40.742Z,16.63
2023-02-23T00:32:10.642Z,17.58
2023-02-23T00:34:41.749Z,15.70
2023-02-23T00:37:12.312Z,17.33
2023-02-23T00:39:41.847Z,15.88
2023-02-23T00:42:13.648Z,16.30
2023-02-23T00:44:43.327Z,17.13
2023-02-23T00:47:12.968Z,17.15
2023-02-23T00:49:44.953Z,16.75
2023-02-23T00:52:15.447Z,16.95
2023-02-23T00:54:45.043Z,15.95
2023-02-23T00:57:18.259Z,16.77
2023-02-23T00:59:47.842Z,17.83
2023-02-23T01:02:18.351Z,16.48
2023-02-23T01:04:47.865Z,16.58
2023-02-23T01:07:17.354Z,15.80
2023-02-23T01:09:46.859Z,17.30
2023-02-23T01:12:17.623Z,16.70
2023-02-23T01:14:47.696Z,17.40
2023-02-23T01:17:17.893Z,17.38
2023-02-23T01:19:47.326Z,16.73
2023-02-23T01:22:16.808Z,18.13
2023-02-23T01:24:46.852Z,17.75
2023-02-23T01:27:17.616Z,18.67
2023-02-23T01:29:47.319Z,16.77
2023-02-23T01:32:17.415Z,18.02
2023-02-23T01:34:47.186Z,16.10
2023-02-23T01:37:16.689Z,17.02
2023-02-23T01:39:46.127Z,17.38
2023-02-23T01:42:17.281Z,16.27
2023-02-23T01:48:02.838Z,17.27
2023-02-23T01:50:43.889Z,16.65
2023-02-23T01:53:17.197Z,18.00
2023-02-23T01:55:49.806Z,18.98
2023-02-23T01:58:23.562Z,18.23
2023-02-23T02:00:57.439Z,18.92
2023-02-23T02:03:34.758Z,17.70
2023-02-23T02:06:09.754Z,19.80
2023-02-23T02:08:44.838Z,17.38
2023-02-23T02:11:26.048Z,19.20
2023-02-23T02:14:02.604Z,17.20
2023-02-23T02:17:05.217Z,16.80
2023-02-23T02:21:06.289Z,16.70
2023-02-23T02:24:37.275Z,18.50
2023-02-23T02:27:28.772Z,18.83
2023-02-23T02:30:44.538Z,18.33
2023-02-23T02:34:12.829Z,17.95
2023-02-23T02:37:35.400Z,17.38
2023-02-23T02:40:18.583Z,18.98
2023-02-23T02:43:09.032Z,18.58
2023-02-23T02:45:52.379Z,18.60
2023-02-23T02:48:41.783Z,17.45
2023-02-23T02:51:23.321Z,17.45
2023-02-23T02:54:06.909Z,18.88
2023-02-23T02:56:42.562Z,18.45
2023-02-23T02:59:33.964Z,17.58
2023-02-23T03:02:23.517Z,19.17
2023-02-23T03:05:10.372Z,19.55
2023-02-23T03:08:07.373Z,18.85
2023-02-23T03:11:06.372Z,19.15
2023-02-23T03:14:06.914Z,17.23
2023-02-23T03:17:08.007Z,18.30
2023-02-23T03:20:07.323Z,19.70
2023-02-23T03:23:06.117Z,18.05
2023-02-23T03:26:07.891Z,19.20
2023-02-23T03:29:06.595Z,18.02
2023-02-23T03:32:02.731Z,19.40
2023-02-23T03:34:59.017Z,20.25
2023-02-23T03:37:55.556Z,18.02
2023-02-23T03:40:52.740Z,18.67
2023-02-23T03:43:48.268Z,18.40
2023-02-23T03:46:39.820Z,19.30
2023-02-23T03:49:30.415Z,18.88
2023-02-23T03:52:27.463Z,18.42
2023-02-23T03:55:21.968Z,19.20
2023-02-23T03:58:14.020Z,17.95
2023-02-23T04:01:08.065Z,18.65
2023-02-23T04:04:01.024Z,18.77
2023-02-23T04:06:55.267Z,17.80
2023-02-23T04:09:42.311Z,19.27
2023-02-23T04:12:38.355Z,18.40
2023-02-23T04:15:13.866Z,17.00
2023-02-23T04:17:45.631Z,19.30
2023-02-23T04:20:16.231Z,17.60
2023-02-23T04:22:45.707Z,18.75
2023-02-23T04:25:17.569Z,20.95
2023-02-23T04:27:47.018Z,21.35
2023-02-23T04:30:17.230Z,18.17
2023-02-23T04:32:48.112Z,19.23
2023-02-23T04:35:17.697Z,19.63
2023-02-23T04:37:47.209Z,18.73
2023-02-23T04:40:16.870Z,18.38
2023-02-23T04:42:46.325Z,20.10
2023-02-23T04:45:16.054Z,19.25
2023-02-23T04:47:47.151Z,19.55
2023-02-23T04:50:17.398Z,18.90
2023-02-23T04:52:47.551Z,19.83
2023-02-23T04:55:22.396Z,20.08
2023-02-23T04:57:52.148Z,19.63
2023-02-23T05:00:22.133Z,18.55
2023-02-23T05:02:52.925Z,19.05
2023-02-23T05:05:22.566Z,20.85
2023-02-23T05:07:52.011Z,18.85
2023-02-23T05:10:21.690Z,18.30
2023-02-23T05:12:51.216Z,19.83
2023-02-23T05:15:21.094Z,18.48
2023-02-23T05:17:51.919Z,19.90
2023-02-23T05:20:21.626Z,21.40
2023-02-23T05:22:51.210Z,19.35
2023-02-23T05:25:20.776Z,21.13
2023-02-23T05:27:50.809Z,19.35
2023-02-23T05:30:20.373Z,20.67
2023-02-23T05:32:49.741Z,19.45
2023-02-23T05:35:20.667Z,17.83
2023-02-23T05:37:50.117Z,19.85
2023-02-23T05:40:20.499Z,18.48
2023-02-23T05:42:49.999Z,18.30
2023-02-23T05:45:19.514Z,19.38
2023-02-23T05:47:49.911Z,17.30
2023-02-23T05:50:20.974Z,17.52
2023-02-23T05:52:50.418Z,17.98
2023-02-23T05:55:19.969Z,18.35
2023-02-23T05:57:50.672Z,17.73
2023-02-23T06:00:21.361Z,19.25
2023-02-23T06:02:52.375Z,18.10
2023-02-23T06:05:23.136Z,19.33
2023-02-23T06:07:53.292Z,19.17
2023-02-23T06:10:22.687Z,20.85
2023-02-23T06:12:52.086Z,20.10
2023-02-23T06:15:21.474Z,19.13
2023-02-23T06:17:50.861Z,18.60
2023-02-23T06:20:22.728Z,18.75
2023-02-23T06:22:52.166Z,18.67
2023-02-23T06:25:21.729Z,18.27
2023-02-23T06:27:51.425Z,17.83
2023-02-23T06:30:21.259Z,16.80
2023-02-23T06:32:50.943Z,17.70
2023-02-23T06:35:25.589Z,16.98
2023-02-23T06:37:55.375Z,17.13
2023-02-23T06:40:25.266Z,17.15
2023-02-23T06:42:54.756Z,17.17
2023-02-23T06:45:24.199Z,18.75
2023-02-23T06:47:53.738Z,18.42
2023-02-23T06:50:24.517Z,18.88
2023-02-23T06:52:53.925Z,17.95
2023-02-23T06:55:23.509Z,18.20
2023-02-23T06:57:54.253Z,18.67
2023-02-23T07:00:24.854Z,17.27
2023-02-23T07:02:54.414Z,17.10
